createdAt,value
2018-08-19T00:01:02.140Z,76.02
2018-08-19T00:03:32.894Z,75.42
2018-08-19T00:06:03.268Z,75.24
2018-08-19T00:08:34.531Z,75.45
2018-08-19T00:11:09.932Z,75.99
2018-08-19T00:13:41.036Z,75.81
2018-08-19T00:16:12.156Z,75.75
2018-08-19T00:18:43.412Z,76.43
2018-08-19T00:21:14.127Z,76.58
2018-08-19T00:23:49.420Z,76.00
2018-08-19T00:26:19.801Z,77.22
2018-08-19T00:28:50.600Z,77.16
2018-08-19T00:31:21.056Z,77.54
2018-08-19T00:33:51.531Z,78.26
2018-08-19T00:36:32.512Z,77.34
2018-08-19T00:39:03.077Z,77.34
2018-08-19T00:41:33.571Z,76.96
2018-08-19T00:44:04.261Z,77.40
2018-08-19T00:46:34.733Z,76.62
2018-08-19T00:49:05.243Z,76.42
2018-08-19T00:51:36.820Z,76.53
2018-08-19T00:54:07.334Z,76.63
2018-08-19T00:56:38.059Z,76.84
2018-08-19T00:59:11.203Z,77.29
2018-08-19T01:01:41.665Z,77.21
2018-08-19T01:04:12.547Z,77.02
2018-08-19T01:06:48.305Z,77.10
2018-08-19T01:09:18.977Z,77.61
2018-08-19T01:11:49.743Z,76.95
2018-08-19T01:14:20.809Z,77.14
2018-08-19T01:16:51.473Z,76.86
2018-08-19T01:19:22.011Z,77.32
2018-08-19T01:21:54.147Z,76.40
2018-08-19T01:24:24.946Z,77.12
2018-08-19T01:26:55.817Z,77.53
2018-08-19T01:29:41.112Z,77.46
2018-08-19T01:32:12.203Z,78.30
2018-08-19T01:34:46.131Z,78.57
2018-08-19T01:37:16.563Z,78.39
2018-08-19T01:39:47.936Z,78.57
2018-08-19T01:42:18.351Z,78.46
2018-08-19T01:44:48.791Z,77.33
2018-08-19T01:47:19.303Z,77.95
2018-08-19T01:49:49.753Z,78.53
2018-08-19T01:52:20.131Z,79.17
2018-08-19T01:54:50.653Z,78.73
2018-08-19T01:57:21.195Z,78.93
2018-08-19T01:59:52.601Z,78.81
2018-08-19T02:02:23.095Z,79.04
2018-08-19T02:04:56.883Z,79.18
2018-08-19T02:07:27.681Z,78.53
2018-08-19T02:10:03.957Z,78.13
2018-08-19T02:12:39.411Z,79.32
2018-08-19T02:15:11.189Z,79.68
2018-08-19T02:18:14.425Z,79.52
2018-08-19T02:20:44.950Z,79.34
2018-08-19T02:23:15.506Z,79.37
2018-08-19T02:25:48.099Z,79.77
2018-08-19T02:28:22.369Z,79.91
2018-08-19T02:31:02.769Z,79.80
2018-08-19T02:33:36.224Z,79.95
2018-08-19T02:36:08.052Z,79.79
2018-08-19T02:38:39.093Z,79.89
2018-08-19T02:41:09.632Z,80.11
2018-08-19T02:43:50.507Z,79.90
2018-08-19T02:46:21.075Z,80.21
2018-08-19T02:48:55.450Z,79.71
2018-08-19T02:51:25.852Z,79.59
2018-08-19T02:53:57.017Z,79.79
2018-08-19T02:56:27.419Z,79.31
2018-08-19T02:58:58.209Z,79.81
2018-08-19T03:01:28.683Z,80.25
2018-08-19T03:04:00.235Z,80.37
2018-08-19T03:06:30.719Z,80.30
2018-08-19T03:09:01.159Z,80.16
2018-08-19T03:11:31.662Z,80.76
2018-08-19T03:14:02.413Z,81.08
2018-08-19T03:16:34.952Z,80.55
2018-08-19T03:19:05.397Z,81.18
2018-08-19T03:21:35.821Z,81.01
2018-08-19T03:24:06.393Z,81.06
2018-08-19T03:26:36.806Z,81.07
2018-08-19T03:29:14.158Z,81.35
2018-08-19T03:31:47.602Z,81.55
2018-08-19T03:34:18.218Z,80.97
2018-08-19T03:36:48.854Z,80.92
2018-08-19T03:39:19.219Z,80.87
2018-08-19T03:41:49.679Z,81.40
2018-08-19T03:44:21.569Z,81.63
2018-08-19T03:46:52.047Z,81.52
2018-08-19T03:49:24.144Z,81.45
2018-08-19T03:51:54.610Z,81.41
2018-08-19T03:54:25.172Z,81.46
2018-08-19T03:56:56.314Z,81.46
2018-08-19T03:59:26.718Z,80.90
2018-08-19T04:01:57.098Z,81.44
2018-08-19T04:04:27.654Z,80.63
2018-08-19T04:06:58.395Z,80.54
2018-08-19T04:09:28.802Z,80.31
2018-08-19T04:12:12.172Z,80.97
2018-08-19T04:14:42.568Z,81.15
2018-08-19T04:17:49.528Z,80.99
2018-08-19T04:20:19.978Z,80.84
2018-08-19T04:22:50.328Z,80.81
2018-08-19T04:25:25.840Z,80.75
2018-08-19T04:27:56.790Z,80.61
2018-08-19T04:30:27.265Z,80.96
2018-08-19T04:32:57.766Z,81.16
2018-08-19T04:35:27.701Z,81.63
2018-08-19T04:37:58.166Z,81.43
2018-08-19T04:40:29.042Z,80.89
2018-08-19T04:42:59.502Z,80.88
2018-08-19T04:45:29.648Z,80.54
2018-08-19T04:48:00.230Z,81.30
2018-08-19T04:50:30.152Z,80.75
2018-08-19T04:53:01.568Z,80.58
2018-08-19T04:55:32.135Z,80.65
2018-08-19T04:58:02.547Z,80.02
2018-08-19T05:00:32.950Z,79.71
2018-08-19T05:03:02.834Z,78.92
2018-08-19T05:05:33.312Z,79.48
2018-08-19T05:08:04.461Z,79.45
2018-08-19T05:10:35.109Z,78.95
2018-08-19T05:13:06.584Z,79.32
2018-08-19T05:15:37.381Z,78.15
2018-08-19T05:18:08.934Z,77.20
2018-08-19T05:20:39.598Z,74.82
2018-08-19T05:23:10.134Z,72.32
2018-08-19T05:25:45.639Z,69.45
2018-08-19T05:28:19.670Z,65.88
2018-08-19T05:30:50.356Z,61.25
2018-08-19T05:33:20.764Z,59.80
2018-08-19T05:35:51.806Z,56.89
2018-08-19T05:38:22.181Z,55.66
2018-08-19T05:40:57.684Z,54.10
2018-08-19T05:43:29.376Z,52.28
2018-08-19T05:46:01.010Z,52.15
2018-08-19T05:48:31.819Z,51.67
2018-08-19T05:51:02.239Z,49.56
2018-08-19T05:53:33.110Z,49.30
2018-08-19T05:56:03.529Z,48.74
2018-08-19T05:58:33.743Z,48.09
2018-08-19T06:01:04.301Z,46.67
2018-08-19T06:03:34.726Z,46.29
2018-08-19T06:06:05.991Z,45.89
2018-08-19T06:08:36.170Z,45.87
2018-08-19T06:11:06.359Z,45.40
2018-08-19T06:13:36.455Z,44.55
2018-08-19T06:16:07.009Z,44.47
2018-08-19T06:18:37.523Z,44.67
2018-08-19T06:21:09.425Z,44.82
2018-08-19T06:23:40.606Z,44.73
2018-08-19T06:26:11.626Z,45.74
2018-08-19T06:28:42.749Z,45.48
2018-08-19T06:31:14.171Z,45.18
2018-08-19T06:33:44.891Z,45.06
2018-08-19T06:36:16.187Z,43.86
2018-08-19T06:38:47.032Z,43.76
2018-08-19T06:41:17.575Z,43.98
2018-08-19T06:43:48.010Z,44.38
2018-08-19T06:46:18.385Z,43.53
2018-08-19T06:48:48.947Z,43.47
2018-08-19T06:51:19.336Z,42.76
2018-08-19T06:53:49.891Z,43.51
2018-08-19T06:56:20.637Z,43.25
2018-08-19T06:58:51.131Z,43.44
2018-08-19T07:01:21.473Z,42.64
2018-08-19T07:03:55.930Z,43.02
2018-08-19T07:06:26.507Z,43.44
2018-08-19T07:08:57.261Z,44.87
2018-08-19T07:11:27.721Z,44.92
2018-08-19T07:13:58.364Z,45.51
2018-08-19T07:16:28.955Z,44.32
2018-08-19T07:18:59.653Z,44.07
2018-08-19T07:21:30.037Z,44.82
2018-08-19T07:24:00.390Z,45.20
2018-08-19T07:26:30.791Z,46.44
2018-08-19T07:29:01.085Z,48.51
2018-08-19T07:31:31.747Z,49.28
2018-08-19T07:34:02.080Z,49.11
2018-08-19T07:36:32.483Z,48.93
2018-08-19T07:39:02.870Z,48.09
2018-08-19T07:41:33.258Z,45.66
2018-08-19T07:44:03.785Z,47.02
2018-08-19T07:46:34.417Z,46.78
2018-08-19T07:49:04.801Z,48.08
2018-08-19T07:51:35.922Z,49.30
2018-08-19T07:54:06.953Z,49.53
2018-08-19T07:56:37.740Z,50.44
2018-08-19T07:59:10.103Z,50.48
2018-08-19T08:01:41.074Z,49.94
2018-08-19T08:04:11.838Z,50.94
2018-08-19T08:06:42.547Z,50.04
2018-08-19T08:09:13.239Z,51.55
2018-08-19T08:11:43.699Z,49.65
2018-08-19T08:14:14.667Z,49.46
2018-08-19T08:16:50.219Z,48.89
2018-08-19T08:19:21.093Z,49.61
2018-08-19T08:21:51.991Z,48.77
2018-08-19T08:24:22.795Z,48.79
2018-08-19T08:26:56.220Z,46.68
2018-08-19T08:29:26.973Z,46.59
2018-08-19T08:31:58.578Z,45.73
2018-08-19T08:34:30.092Z,44.83
2018-08-19T08:37:05.690Z,46.94
2018-08-19T08:39:37.152Z,47.29
2018-08-19T08:42:08.191Z,47.36
2018-08-19T08:44:38.736Z,46.58
2018-08-19T08:47:11.538Z,46.79
2018-08-19T08:49:47.858Z,47.97
2018-08-19T08:52:25.383Z,45.98
2018-08-19T08:54:57.936Z,47.04
2018-08-19T08:57:28.812Z,45.63
2018-08-19T08:59:59.597Z,45.77
2018-08-19T09:02:30.050Z,46.97
2018-08-19T09:05:00.794Z,47.68
2018-08-19T09:07:31.324Z,48.78
2018-08-19T09:10:01.824Z,48.43
2018-08-19T09:12:52.803Z,48.42
2018-08-19T09:15:23.346Z,48.88
2018-08-19T09:17:54.271Z,47.57
2018-08-19T09:20:24.797Z,48.71
2018-08-19T09:22:55.248Z,49.60
2018-08-19T09:25:25.994Z,48.27
2018-08-19T09:27:56.480Z,46.07
2018-08-19T09:30:44.258Z,46.64
2018-08-19T09:33:15.200Z,46.94
2018-08-19T09:35:45.612Z,47.32
2018-08-19T09:38:20.682Z,44.94
2018-08-19T09:41:47.384Z,45.70
2018-08-19T09:44:17.788Z,45.83
2018-08-19T09:46:48.114Z,45.37
2018-08-19T09:49:18.553Z,45.87
2018-08-19T09:51:49.379Z,44.99
2018-08-19T09:54:25.966Z,43.29
2018-08-19T09:56:56.706Z,43.70
2018-08-19T09:59:27.140Z,45.98
2018-08-19T10:01:58.212Z,45.65
2018-08-19T10:04:28.870Z,45.96
2018-08-19T10:07:05.044Z,44.01
2018-08-19T10:09:36.264Z,44.16
2018-08-19T10:12:07.038Z,43.85
2018-08-19T10:14:37.750Z,44.16
2018-08-19T10:17:08.625Z,44.45
2018-08-19T10:19:39.206Z,43.18
2018-08-19T10:22:09.881Z,43.77
2018-08-19T10:24:40.239Z,43.09
2018-08-19T10:27:10.606Z,45.29
2018-08-19T10:29:41.034Z,45.21
2018-08-19T10:32:11.470Z,46.35
2018-08-19T10:34:41.933Z,46.11
2018-08-19T10:37:12.340Z,44.84
2018-08-19T10:39:42.728Z,43.26
2018-08-19T10:42:23.790Z,43.85
2018-08-19T10:44:54.197Z,44.03
2018-08-19T10:47:24.875Z,44.52
2018-08-19T10:49:59.730Z,43.22
2018-08-19T10:52:31.503Z,44.33
2018-08-19T10:55:02.605Z,44.07
2018-08-19T10:57:33.078Z,44.03
2018-08-19T11:00:03.502Z,44.92
2018-08-19T11:02:34.282Z,45.51
2018-08-19T11:05:04.695Z,44.30
2018-08-19T11:07:35.405Z,44.10
2018-08-19T11:10:20.810Z,44.73
2018-08-19T11:12:54.972Z,44.66
2018-08-19T11:15:49.903Z,43.65
2018-08-19T11:18:28.690Z,45.10
2018-08-19T11:21:03.606Z,44.46
2018-08-19T11:23:37.813Z,43.46
2018-08-19T11:26:09.541Z,44.54
2018-08-19T11:28:48.874Z,44.91
2018-08-19T11:31:25.770Z,44.29
2018-08-19T11:34:00.025Z,44.26
2018-08-19T11:36:37.091Z,44.39
2018-08-19T11:39:14.680Z,43.83
2018-08-19T11:41:45.107Z,43.98
2018-08-19T11:44:17.044Z,42.76
2018-08-19T11:46:47.532Z,41.56
2018-08-19T11:49:19.619Z,42.12
2018-08-19T11:51:57.489Z,44.00
2018-08-19T11:54:28.564Z,43.47
2018-08-19T11:57:07.982Z,43.59
2018-08-19T11:59:40.707Z,44.84
2018-08-19T12:02:13.629Z,44.29
2018-08-19T12:04:44.578Z,43.92
2018-08-19T12:07:15.079Z,44.39
2018-08-19T12:10:00.161Z,42.97
2018-08-19T12:12:46.119Z,42.60
2018-08-19T12:15:16.353Z,41.16
2018-08-19T12:17:46.509Z,41.09
2018-08-19T12:20:23.450Z,42.70
2018-08-19T12:22:54.150Z,42.53
2018-08-19T12:25:24.888Z,41.29
2018-08-19T12:27:55.378Z,42.49
2018-08-19T12:30:25.932Z,41.74
2018-08-19T12:33:11.667Z,42.17
2018-08-19T12:35:41.891Z,41.57
2018-08-19T12:38:13.084Z,41.78
2018-08-19T12:40:46.244Z,41.86
2018-08-19T12:43:16.763Z,42.18
2018-08-19T12:45:47.182Z,42.52
2018-08-19T12:48:17.851Z,40.73
2018-08-19T12:50:52.972Z,41.43
2018-08-19T12:53:23.096Z,41.15
2018-08-19T12:55:53.564Z,41.81
2018-08-19T12:58:23.836Z,41.81
2018-08-19T13:00:54.016Z,40.08
2018-08-19T13:03:28.127Z,40.64
2018-08-19T13:06:04.455Z,39.97
2018-08-19T13:08:35.162Z,40.32
2018-08-19T13:11:07.428Z,38.60
2018-08-19T13:13:37.603Z,38.65
2018-08-19T13:16:08.389Z,38.97
2018-08-19T13:18:41.297Z,39.58
2018-08-19T13:21:16.133Z,40.34
2018-08-19T13:23:46.409Z,41.24
2018-08-19T13:26:16.534Z,40.27
2018-08-19T13:28:52.451Z,42.74
2018-08-19T13:31:29.717Z,38.84
2018-08-19T13:34:00.844Z,40.69
2018-08-19T13:36:31.006Z,40.45
2018-08-19T13:39:01.426Z,40.24
2018-08-19T13:41:31.889Z,40.98
2018-08-19T13:44:02.345Z,41.49
2018-08-19T13:46:32.851Z,42.09
2018-08-19T13:49:03.198Z,40.67
2018-08-19T13:51:33.394Z,41.35
2018-08-19T13:54:04.308Z,40.84
2018-08-19T13:56:34.385Z,40.14
2018-08-19T13:59:04.582Z,40.82
2018-08-19T14:01:34.980Z,41.74
2018-08-19T14:04:05.188Z,39.74
2018-08-19T14:06:35.280Z,39.67
2018-08-19T14:09:06.750Z,39.01
2018-08-19T14:11:36.842Z,39.59
2018-08-19T14:14:07.341Z,38.72
2018-08-19T14:16:37.458Z,38.92
2018-08-19T14:19:07.805Z,38.63
2018-08-19T14:21:38.293Z,38.68
2018-08-19T14:24:08.329Z,37.78
2018-08-19T14:26:38.396Z,37.52
2018-08-19T14:29:08.754Z,38.40
2018-08-19T14:31:38.953Z,37.57
2018-08-19T14:34:09.114Z,36.87
2018-08-19T14:36:39.300Z,37.60
2018-08-19T14:39:09.371Z,37.12
2018-08-19T14:41:39.493Z,37.93
2018-08-19T14:44:09.582Z,37.75
2018-08-19T14:46:40.021Z,37.78
2018-08-19T14:49:10.357Z,38.76
2018-08-19T14:51:58.803Z,38.11
2018-08-19T14:54:29.503Z,36.07
2018-08-19T14:57:00.738Z,36.43
2018-08-19T14:59:31.261Z,36.27
2018-08-19T15:02:01.540Z,37.36
2018-08-19T15:04:31.894Z,37.84
2018-08-19T15:07:02.096Z,37.32
2018-08-19T15:09:35.312Z,36.85
2018-08-19T15:12:15.084Z,37.83
2018-08-19T15:14:45.398Z,37.23
2018-08-19T15:17:15.623Z,36.87
2018-08-19T15:19:50.139Z,36.28
2018-08-19T15:22:20.692Z,35.52
2018-08-19T15:24:51.314Z,35.98
2018-08-19T15:27:21.866Z,36.07
2018-08-19T15:29:54.262Z,36.57
2018-08-19T15:32:25.547Z,36.07
2018-08-19T15:34:56.182Z,35.28
2018-08-19T15:37:26.309Z,35.49
2018-08-19T15:39:56.475Z,35.33
2018-08-19T15:42:26.708Z,35.84
2018-08-19T15:44:56.849Z,35.13
2018-08-19T15:47:26.915Z,35.52
2018-08-19T15:50:13.927Z,34.78
2018-08-19T15:52:44.839Z,34.66
2018-08-19T15:55:15.188Z,36.50
2018-08-19T15:57:45.676Z,36.11
2018-08-19T16:00:15.804Z,35.42
2018-08-19T16:02:45.891Z,34.98
2018-08-19T16:05:17.068Z,35.60
2018-08-19T16:07:47.597Z,35.77
2018-08-19T16:10:17.932Z,36.04
2018-08-19T16:12:51.204Z,35.80
2018-08-19T16:15:25.322Z,36.16
2018-08-19T16:17:56.975Z,35.80
2018-08-19T16:20:27.195Z,36.00
2018-08-19T16:22:57.396Z,36.70
2018-08-19T16:25:27.552Z,34.45
2018-08-19T16:27:58.289Z,35.44
2018-08-19T16:30:28.418Z,37.09
2018-08-19T16:32:58.513Z,36.09
2018-08-19T16:35:28.722Z,36.85
2018-08-19T16:37:58.858Z,36.68
2018-08-19T16:40:30.153Z,37.59
2018-08-19T16:43:00.211Z,37.35
2018-08-19T16:45:30.383Z,37.05
2018-08-19T16:48:00.540Z,37.79
2018-08-19T16:50:31.237Z,37.05
2018-08-19T16:53:01.434Z,36.62
2018-08-19T16:55:31.546Z,36.66
2018-08-19T16:58:01.693Z,37.83
2018-08-19T17:00:31.824Z,37.14
2018-08-19T17:03:06.543Z,39.49
2018-08-19T17:05:36.917Z,40.02
2018-08-19T17:08:07.831Z,40.33
2018-08-19T17:10:37.974Z,41.77
2018-08-19T17:13:08.173Z,42.00
2018-08-19T17:15:38.425Z,43.63
2018-08-19T17:18:09.150Z,43.58
2018-08-19T17:24:16.167Z,44.70
2018-08-19T17:26:47.032Z,45.47
2018-08-19T17:29:19.351Z,45.56
2018-08-19T17:31:49.826Z,45.60
2018-08-19T17:34:20.657Z,45.90
2018-08-19T17:40:29.587Z,45.29
2018-08-19T17:43:00.563Z,45.95
2018-08-19T17:45:31.013Z,46.81
2018-08-19T17:48:01.615Z,46.77
2018-08-19T17:50:32.421Z,46.12
2018-08-19T17:53:03.325Z,47.03
2018-08-19T17:55:33.825Z,47.95
2018-08-19T17:58:04.465Z,47.15
2018-08-19T18:00:34.965Z,47.12
2018-08-19T18:06:41.988Z,47.24
2018-08-19T18:09:16.580Z,49.43
2018-08-19T18:11:53.649Z,50.64
2018-08-19T18:14:23.993Z,49.43
2018-08-19T18:16:54.550Z,50.78
2018-08-19T18:19:24.955Z,51.43
2018-08-19T18:21:55.412Z,51.74
2018-08-19T18:24:25.819Z,51.43
2018-08-19T18:26:56.552Z,51.67
2018-08-19T18:29:32.403Z,51.73
2018-08-19T18:32:02.799Z,52.43
2018-08-19T18:34:34.163Z,51.71
2018-08-19T18:37:04.717Z,52.46
2018-08-19T18:39:35.189Z,52.53
2018-08-19T18:42:05.775Z,52.29
2018-08-19T18:44:36.622Z,52.24
2018-08-19T18:47:08.060Z,52.74
2018-08-19T18:49:38.395Z,52.81
2018-08-19T18:52:14.033Z,52.35
2018-08-19T18:54:44.513Z,53.03
2018-08-19T18:57:14.876Z,52.59
2018-08-19T18:59:45.240Z,52.23
2018-08-19T19:02:15.627Z,52.07
2018-08-19T19:04:46.261Z,52.81
2018-08-19T19:07:16.781Z,54.50
2018-08-19T19:09:51.019Z,54.63
2018-08-19T19:12:23.627Z,53.99
2018-08-19T19:14:54.377Z,54.50
2018-08-19T19:17:24.828Z,54.32
2018-08-19T19:19:55.248Z,54.44
2018-08-19T19:22:26.026Z,54.44
2018-08-19T19:24:56.477Z,55.46
2018-08-19T19:27:26.949Z,55.92
2018-08-19T19:30:02.765Z,55.99
2018-08-19T19:32:33.187Z,55.82
2018-08-19T19:35:10.022Z,55.75
2018-08-19T19:37:41.083Z,56.00
2018-08-19T19:43:47.767Z,56.19
2018-08-19T19:46:18.545Z,56.13
2018-08-19T19:48:49.229Z,55.86
2018-08-19T19:51:19.673Z,57.20
2018-08-19T19:53:50.287Z,56.56
2018-08-19T19:56:20.937Z,57.10
2018-08-19T19:58:51.345Z,57.27
2018-08-19T20:01:21.752Z,57.29
2018-08-19T20:03:54.364Z,58.12
2018-08-19T20:06:25.771Z,57.69
2018-08-19T20:09:00.028Z,57.36
2018-08-19T20:11:31.399Z,56.86
2018-08-19T20:14:03.156Z,56.95
2018-08-19T20:16:33.585Z,56.41
2018-08-19T20:19:05.258Z,55.80
2018-08-19T20:21:37.266Z,56.04
2018-08-19T20:24:07.824Z,55.75
2018-08-19T20:26:38.332Z,56.17
2018-08-19T20:29:08.930Z,55.70
2018-08-19T20:31:39.700Z,55.16
2018-08-19T20:34:10.240Z,56.05
2018-08-19T20:36:40.611Z,56.00
2018-08-19T20:39:11.360Z,55.58
2018-08-19T20:41:41.732Z,55.76
2018-08-19T20:44:12.269Z,56.51
2018-08-19T20:46:48.395Z,56.90
2018-08-19T20:49:18.774Z,56.42
2018-08-19T20:51:49.214Z,56.86
2018-08-19T20:54:19.613Z,56.02
2018-08-19T20:56:50.127Z,56.60
2018-08-19T20:59:37.895Z,56.30
2018-08-19T21:02:09.517Z,56.48
2018-08-19T21:04:40.724Z,57.52
2018-08-19T21:07:11.158Z,57.62
2018-08-19T21:09:42.072Z,57.72
2018-08-19T21:12:12.724Z,58.47
2018-08-19T21:14:43.213Z,58.39
2018-08-19T21:17:13.816Z,57.64
2018-08-19T21:19:45.262Z,58.07
2018-08-19T21:22:15.978Z,58.29
2018-08-19T21:24:46.408Z,58.62
2018-08-19T21:27:16.904Z,59.02
2018-08-19T21:29:47.428Z,58.92
2018-08-19T21:32:17.954Z,58.18
2018-08-19T21:34:49.058Z,59.76
2018-08-19T21:37:27.508Z,59.92
2018-08-19T21:39:58.044Z,60.81
2018-08-19T21:42:28.486Z,59.14
2018-08-19T21:44:58.935Z,59.12
2018-08-19T21:47:29.770Z,59.72
2018-08-19T21:50:00.808Z,60.46
2018-08-19T21:52:31.363Z,62.29
2018-08-19T21:55:02.302Z,62.92
2018-08-19T21:57:32.656Z,63.32
2018-08-19T22:00:03.174Z,63.66
2018-08-19T22:03:39.653Z,64.06
2018-08-19T22:06:48.123Z,63.47
2018-08-19T22:09:33.560Z,62.98
2018-08-19T22:12:04.592Z,62.44
2018-08-19T22:14:35.084Z,63.07
2018-08-19T22:17:09.708Z,62.65
2018-08-19T22:19:41.059Z,62.43
2018-08-19T22:22:11.682Z,62.22
2018-08-19T22:24:42.203Z,62.63
2018-08-19T22:27:17.348Z,62.15
2018-08-19T22:29:49.374Z,62.91
2018-08-19T22:32:21.588Z,63.28
2018-08-19T22:34:52.062Z,63.04
2018-08-19T22:37:23.302Z,62.70
2018-08-19T22:39:53.868Z,63.53
2018-08-19T22:42:24.508Z,63.38
2018-08-19T22:44:55.684Z,62.68
2018-08-19T22:47:26.150Z,63.27
2018-08-19T22:49:58.468Z,63.11
2018-08-19T22:52:29.123Z,62.92
2018-08-19T22:55:00.177Z,62.92
2018-08-19T22:57:30.634Z,63.73
2018-08-19T23:00:01.445Z,64.03
2018-08-19T23:02:31.916Z,64.09
2018-08-19T23:05:02.444Z,63.93
2018-08-19T23:07:32.980Z,63.88
2018-08-19T23:10:03.730Z,64.33
2018-08-19T23:12:34.332Z,64.49
2018-08-19T23:15:21.176Z,64.13
2018-08-19T23:17:51.640Z,64.30
2018-08-19T23:20:22.180Z,65.00
2018-08-19T23:22:52.836Z,65.03
2018-08-19T23:25:23.294Z,64.94
2018-08-19T23:27:54.400Z,65.76
2018-08-19T23:30:25.706Z,65.86
2018-08-19T23:32:56.125Z,65.63
2018-08-19T23:35:27.378Z,66.17
2018-08-19T23:37:57.906Z,66.56
2018-08-19T23:40:28.498Z,66.97
2018-08-19T23:42:58.949Z,67.21
2018-08-19T23:45:29.564Z,66.53
2018-08-19T23:47:59.997Z,66.93
2018-08-19T23:50:30.786Z,66.88
2018-08-19T23:53:02.057Z,66.29
2018-08-19T23:55:35.209Z,66.25
2018-08-19T23:58:06.001Z,66.02
